sensor_id;sensor_type;location;lat;lon;timestamp;P1;durP1;ratioP1;P2;durP2;ratioP2
29774;SDS011;16676;51.202;6.774;2023-04-25T00:00:58;9.55;;;5.47;;
29774;SDS011;16676;51.202;6.774;2023-04-25T00:05:02;9.65;;;5.53;;
29774;SDS011;16676;51.202;6.774;2023-04-25T00:09:05;9.80;;;5.50;;
29774;SDS011;16676;51.202;6.774;2023-04-25T00:13:09;8.85;;;4.80;;
29774;SDS011;16676;51.202;6.774;2023-04-25T00:17:11;11.63;;;5.55;;
29774;SDS011;16676;51.202;6.774;2023-04-25T00:21:14;9.75;;;5.43;;
29774;SDS011;16676;51.202;6.774;2023-04-25T00:25:18;9.00;;;5.20;;
29774;SDS011;16676;51.202;6.774;2023-04-25T00:29:20;10.13;;;5.07;;
29774;SDS011;16676;51.202;6.774;2023-04-25T00:33:22;11.02;;;5.53;;
29774;SDS011;16676;51.202;6.774;2023-04-25T00:37:25;7.70;;;4.53;;
29774;SDS011;16676;51.202;6.774;2023-04-25T00:41:28;8.60;;;4.57;;
29774;SDS011;16676;51.202;6.774;2023-04-25T00:45:30;8.80;;;4.75;;
29774;SDS011;16676;51.202;6.774;2023-04-25T00:49:32;8.05;;;4.70;;
29774;SDS011;16676;51.202;6.774;2023-04-25T00:53:36;8.05;;;4.43;;
29774;SDS011;16676;51.202;6.774;2023-04-25T00:57:38;8.40;;;4.70;;
29774;SDS011;16676;51.202;6.774;2023-04-25T01:01:40;8.35;;;4.40;;
29774;SDS011;16676;51.202;6.774;2023-04-25T01:05:43;9.25;;;4.88;;
29774;SDS011;16676;51.202;6.774;2023-04-25T01:09:46;6.32;;;4.20;;
29774;SDS011;16676;51.202;6.774;2023-04-25T01:13:48;7.22;;;4.55;;
29774;SDS011;16676;51.202;6.774;2023-04-25T01:17:50;6.82;;;3.80;;
29774;SDS011;16676;51.202;6.774;2023-04-25T01:21:54;6.78;;;3.83;;
29774;SDS011;16676;51.202;6.774;2023-04-25T01:25:56;9.15;;;4.05;;
29774;SDS011;16676;51.202;6.774;2023-04-25T01:29:58;8.48;;;4.22;;
29774;SDS011;16676;51.202;6.774;2023-04-25T01:34:00;5.97;;;3.38;;
29774;SDS011;16676;51.202;6.774;2023-04-25T01:38:04;6.93;;;3.90;;
29774;SDS011;16676;51.202;6.774;2023-04-25T01:42:06;6.35;;;3.72;;
29774;SDS011;16676;51.202;6.774;2023-04-25T01:46:08;5.65;;;3.78;;
29774;SDS011;16676;51.202;6.774;2023-04-25T01:50:10;6.70;;;3.80;;
29774;SDS011;16676;51.202;6.774;2023-04-25T01:54:14;6.68;;;4.25;;
29774;SDS011;16676;51.202;6.774;2023-04-25T01:58:16;8.00;;;4.10;;
29774;SDS011;16676;51.202;6.774;2023-04-25T02:02:17;6.88;;;3.20;;
29774;SDS011;16676;51.202;6.774;2023-04-25T02:06:19;5.35;;;3.50;;
29774;SDS011;16676;51.202;6.774;2023-04-25T02:10:23;5.53;;;3.63;;
29774;SDS011;16676;51.202;6.774;2023-04-25T02:14:25;5.68;;;3.42;;
29774;SDS011;16676;51.202;6.774;2023-04-25T02:18:27;6.93;;;3.13;;
29774;SDS011;16676;51.202;6.774;2023-04-25T02:22:29;6.47;;;3.58;;
29774;SDS011;16676;51.202;6.774;2023-04-25T02:26:32;5.88;;;3.53;;
29774;SDS011;16676;51.202;6.774;2023-04-25T02:30:34;5.85;;;3.33;;
29774;SDS011;16676;51.202;6.774;2023-04-25T02:34:36;5.82;;;3.47;;
29774;SDS011;16676;51.202;6.774;2023-04-25T02:38:38;6.97;;;3.72;;
29774;SDS011;16676;51.202;6.774;2023-04-25T02:42:41;6.68;;;3.13;;
29774;SDS011;16676;51.202;6.774;2023-04-25T02:46:45;4.20;;;2.92;;
29774;SDS011;16676;51.202;6.774;2023-04-25T02:50:47;3.88;;;2.95;;
29774;SDS011;16676;51.202;6.774;2023-04-25T02:54:49;5.68;;;2.90;;
29774;SDS011;16676;51.202;6.774;2023-04-25T02:58:53;5.30;;;2.60;;
29774;SDS011;16676;51.202;6.774;2023-04-25T03:02:55;5.00;;;2.95;;
29774;SDS011;16676;51.202;6.774;2023-04-25T03:06:57;6.10;;;3.13;;
29774;SDS011;16676;51.202;6.774;2023-04-25T03:10:58;5.75;;;2.97;;
29774;SDS011;16676;51.202;6.774;2023-04-25T03:15:02;4.95;;;2.88;;
29774;SDS011;16676;51.202;6.774;2023-04-25T03:19:05;4.43;;;2.80;;
29774;SDS011;16676;51.202;6.774;2023-04-25T03:23:07;5.03;;;2.97;;
29774;SDS011;16676;51.202;6.774;2023-04-25T03:27:09;5.50;;;2.97;;
29774;SDS011;16676;51.202;6.774;2023-04-25T03:31:12;4.85;;;2.80;;
29774;SDS011;16676;51.202;6.774;2023-04-25T03:35:15;6.40;;;3.05;;
29774;SDS011;16676;51.202;6.774;2023-04-25T03:39:16;5.32;;;3.17;;
29774;SDS011;16676;51.202;6.774;2023-04-25T03:43:18;5.32;;;2.70;;
29774;SDS011;16676;51.202;6.774;2023-04-25T03:47:22;4.85;;;2.83;;
29774;SDS011;16676;51.202;6.774;2023-04-25T03:51:24;4.90;;;3.40;;
29774;SDS011;16676;51.202;6.774;2023-04-25T03:55:26;5.47;;;2.47;;
29774;SDS011;16676;51.202;6.774;2023-04-25T03:59:28;5.13;;;2.67;;
29774;SDS011;16676;51.202;6.774;2023-04-25T04:03:31;4.95;;;2.78;;
29774;SDS011;16676;51.202;6.774;2023-04-25T04:07:33;6.03;;;2.45;;
29774;SDS011;16676;51.202;6.774;2023-04-25T04:11:39;3.38;;;2.42;;
29774;SDS011;16676;51.202;6.774;2023-04-25T04:15:41;4.32;;;2.60;;
29774;SDS011;16676;51.202;6.774;2023-04-25T04:19:44;4.28;;;2.42;;
29774;SDS011;16676;51.202;6.774;2023-04-25T04:23:46;4.35;;;2.60;;
29774;SDS011;16676;51.202;6.774;2023-04-25T04:27:48;3.67;;;2.20;;
29774;SDS011;16676;51.202;6.774;2023-04-25T04:31:52;6.53;;;2.75;;
29774;SDS011;16676;51.202;6.774;2023-04-25T04:35:55;4.53;;;2.25;;
29774;SDS011;16676;51.202;6.774;2023-04-25T04:39:57;4.32;;;2.58;;
29774;SDS011;16676;51.202;6.774;2023-04-25T04:43:58;5.43;;;2.80;;
29774;SDS011;16676;51.202;6.774;2023-04-25T04:48:01;5.22;;;2.28;;
29774;SDS011;16676;51.202;6.774;2023-04-25T04:52:04;4.07;;;2.22;;
29774;SDS011;16676;51.202;6.774;2023-04-25T04:56:06;5.38;;;2.53;;
29774;SDS011;16676;51.202;6.774;2023-04-25T05:00:09;5.03;;;2.50;;
29774;SDS011;16676;51.202;6.774;2023-04-25T05:04:12;5.38;;;2.50;;
29774;SDS011;16676;51.202;6.774;2023-04-25T05:08:16;7.90;;;2.72;;
29774;SDS011;16676;51.202;6.774;2023-04-25T05:12:17;4.90;;;2.50;;
29774;SDS011;16676;51.202;6.774;2023-04-25T05:16:19;7.90;;;2.80;;
29774;SDS011;16676;51.202;6.774;2023-04-25T05:20:22;8.55;;;2.50;;
29774;SDS011;16676;51.202;6.774;2023-04-25T05:24:25;6.20;;;2.63;;
29774;SDS011;16676;51.202;6.774;2023-04-25T05:28:27;6.30;;;2.65;;
29774;SDS011;16676;51.202;6.774;2023-04-25T05:32:29;5.93;;;2.63;;
29774;SDS011;16676;51.202;6.774;2023-04-25T05:36:31;6.70;;;2.75;;
29774;SDS011;16676;51.202;6.774;2023-04-25T05:40:34;5.88;;;2.35;;
29774;SDS011;16676;51.202;6.774;2023-04-25T05:44:36;13.95;;;3.05;;
29774;SDS011;16676;51.202;6.774;2023-04-25T05:48:38;13.50;;;3.67;;
29774;SDS011;16676;51.202;6.774;2023-04-25T05:52:40;11.57;;;3.15;;
29774;SDS011;16676;51.202;6.774;2023-04-25T05:56:43;10.48;;;3.20;;
29774;SDS011;16676;51.202;6.774;2023-04-25T06:00:45;10.98;;;2.95;;
29774;SDS011;16676;51.202;6.774;2023-04-25T06:04:48;9.23;;;2.80;;
29774;SDS011;16676;51.202;6.774;2023-04-25T06:08:50;10.55;;;3.08;;
29774;SDS011;16676;51.202;6.774;2023-04-25T06:12:54;15.82;;;3.15;;
29774;SDS011;16676;51.202;6.774;2023-04-25T06:16:55;11.70;;;3.28;;
29774;SDS011;16676;51.202;6.774;2023-04-25T06:20:57;11.30;;;3.15;;
29774;SDS011;16676;51.202;6.774;2023-04-25T06:24:59;10.00;;;3.10;;
29774;SDS011;16676;51.202;6.774;2023-04-25T06:29:05;9.02;;;2.55;;
29774;SDS011;16676;51.202;6.774;2023-04-25T06:33:07;9.70;;;2.80;;
29774;SDS011;16676;51.202;6.774;2023-04-25T06:37:09;9.10;;;2.83;;
29774;SDS011;16676;51.202;6.774;2023-04-25T06:41:11;11.65;;;2.67;;
29774;SDS011;16676;51.202;6.774;2023-04-25T06:45:15;8.60;;;2.28;;
29774;SDS011;16676;51.202;6.774;2023-04-25T06:49:17;12.20;;;2.67;;
29774;SDS011;16676;51.202;6.774;2023-04-25T06:53:18;10.95;;;2.80;;
29774;SDS011;16676;51.202;6.774;2023-04-25T06:57:20;12.77;;;3.00;;
29774;SDS011;16676;51.202;6.774;2023-04-25T07:01:23;11.40;;;2.83;;
29774;SDS011;16676;51.202;6.774;2023-04-25T07:05:25;7.43;;;2.53;;
29774;SDS011;16676;51.202;6.774;2023-04-25T07:09:27;12.13;;;2.70;;
29774;SDS011;16676;51.202;6.774;2023-04-25T07:13:29;10.32;;;3.17;;
29774;SDS011;16676;51.202;6.774;2023-04-25T07:17:33;8.63;;;2.58;;
29774;SDS011;16676;51.202;6.774;2023-04-25T07:21:35;11.55;;;2.28;;
29774;SDS011;16676;51.202;6.774;2023-04-25T07:25:37;8.82;;;2.20;;
29774;SDS011;16676;51.202;6.774;2023-04-25T07:29:38;7.55;;;2.33;;
29774;SDS011;16676;51.202;6.774;2023-04-25T07:33:42;9.15;;;2.40;;
29774;SDS011;16676;51.202;6.774;2023-04-25T07:37:43;8.82;;;2.42;;
29774;SDS011;16676;51.202;6.774;2023-04-25T07:41:45;11.68;;;2.60;;
29774;SDS011;16676;51.202;6.774;2023-04-25T07:45:47;7.65;;;2.35;;
29774;SDS011;16676;51.202;6.774;2023-04-25T07:49:51;8.43;;;2.13;;
29774;SDS011;16676;51.202;6.774;2023-04-25T07:53:53;11.32;;;2.42;;
29774;SDS011;16676;51.202;6.774;2023-04-25T07:57:54;7.15;;;2.65;;
29774;SDS011;16676;51.202;6.774;2023-04-25T08:01:56;10.98;;;2.45;;
29774;SDS011;16676;51.202;6.774;2023-04-25T08:05:59;7.90;;;2.53;;
29774;SDS011;16676;51.202;6.774;2023-04-25T08:10:01;12.52;;;2.60;;
29774;SDS011;16676;51.202;6.774;2023-04-25T08:14:03;8.40;;;2.30;;
29774;SDS011;16676;51.202;6.774;2023-04-25T08:18:06;10.40;;;2.30;;
29774;SDS011;16676;51.202;6.774;2023-04-25T08:22:09;10.23;;;2.70;;
29774;SDS011;16676;51.202;6.774;2023-04-25T08:26:11;9.63;;;2.22;;
29774;SDS011;16676;51.202;6.774;2023-04-25T08:30:13;10.85;;;2.72;;
29774;SDS011;16676;51.202;6.774;2023-04-25T08:34:15;9.32;;;2.58;;
29774;SDS011;16676;51.202;6.774;2023-04-25T08:38:19;11.55;;;2.92;;
29774;SDS011;16676;51.202;6.774;2023-04-25T08:42:21;11.05;;;2.40;;
29774;SDS011;16676;51.202;6.774;2023-04-25T08:46:25;15.35;;;3.38;;
29774;SDS011;16676;51.202;6.774;2023-04-25T08:50:27;9.38;;;2.38;;
29774;SDS011;16676;51.202;6.774;2023-04-25T08:54:32;6.85;;;2.13;;
29774;SDS011;16676;51.202;6.774;2023-04-25T08:58:34;12.73;;;2.78;;
29774;SDS011;16676;51.202;6.774;2023-04-25T09:02:37;7.53;;;2.05;;
29774;SDS011;16676;51.202;6.774;2023-04-25T09:06:39;7.30;;;2.40;;
29774;SDS011;16676;51.202;6.774;2023-04-25T09:10:43;12.63;;;2.42;;
29774;SDS011;16676;51.202;6.774;2023-04-25T09:14:48;7.20;;;1.80;;
29774;SDS011;16676;51.202;6.774;2023-04-25T09:19:04;9.65;;;2.40;;
29774;SDS011;16676;51.202;6.774;2023-04-25T09:23:06;17.98;;;2.20;;
29774;SDS011;16676;51.202;6.774;2023-04-25T09:27:09;6.43;;;1.80;;
29774;SDS011;16676;51.202;6.774;2023-04-25T09:31:20;8.27;;;1.98;;
29774;SDS011;16676;51.202;6.774;2023-04-25T09:35:24;6.68;;;1.92;;
29774;SDS011;16676;51.202;6.774;2023-04-25T09:39:28;7.10;;;1.77;;
29774;SDS011;16676;51.202;6.774;2023-04-25T09:43:31;8.00;;;2.38;;
29774;SDS011;16676;51.202;6.774;2023-04-25T09:47:36;9.52;;;1.70;;
29774;SDS011;16676;51.202;6.774;2023-04-25T09:51:39;8.05;;;2.13;;
29774;SDS011;16676;51.202;6.774;2023-04-25T09:55:40;7.90;;;2.15;;
29774;SDS011;16676;51.202;6.774;2023-04-25T09:59:47;5.28;;;1.90;;
29774;SDS011;16676;51.202;6.774;2023-04-25T10:03:50;6.72;;;1.95;;
29774;SDS011;16676;51.202;6.774;2023-04-25T10:07:53;7.22;;;1.77;;
29774;SDS011;16676;51.202;6.774;2023-04-25T10:11:56;6.30;;;1.52;;
29774;SDS011;16676;51.202;6.774;2023-04-25T10:16:00;6.05;;;1.55;;
29774;SDS011;16676;51.202;6.774;2023-04-25T10:20:05;6.15;;;1.60;;
29774;SDS011;16676;51.202;6.774;2023-04-25T10:24:10;4.88;;;1.38;;
29774;SDS011;16676;51.202;6.774;2023-04-25T10:28:12;4.55;;;1.55;;
29774;SDS011;16676;51.202;6.774;2023-04-25T10:32:16;6.80;;;1.70;;
29774;SDS011;16676;51.202;6.774;2023-04-25T10:36:18;7.22;;;1.70;;
29774;SDS011;16676;51.202;6.774;2023-04-25T10:40:22;8.48;;;1.73;;
29774;SDS011;16676;51.202;6.774;2023-04-25T10:44:26;4.25;;;1.38;;
29774;SDS011;16676;51.202;6.774;2023-04-25T10:48:31;3.92;;;1.52;;
29774;SDS011;16676;51.202;6.774;2023-04-25T10:52:33;5.45;;;1.48;;
29774;SDS011;16676;51.202;6.774;2023-04-25T10:56:36;6.97;;;1.80;;
29774;SDS011;16676;51.202;6.774;2023-04-25T11:00:39;5.65;;;1.45;;
29774;SDS011;16676;51.202;6.774;2023-04-25T11:04:43;5.32;;;1.50;;
29774;SDS011;16676;51.202;6.774;2023-04-25T11:08:47;4.65;;;1.30;;
29774;SDS011;16676;51.202;6.774;2023-04-25T11:12:51;2.88;;;1.27;;
29774;SDS011;16676;51.202;6.774;2023-04-25T11:16:53;4.72;;;1.42;;
29774;SDS011;16676;51.202;6.774;2023-04-25T11:20:57;4.82;;;1.30;;
29774;SDS011;16676;51.202;6.774;2023-04-25T11:25:03;6.65;;;1.50;;
29774;SDS011;16676;51.202;6.774;2023-04-25T11:29:06;6.15;;;1.23;;
29774;SDS011;16676;51.202;6.774;2023-04-25T11:33:09;3.55;;;1.15;;
29774;SDS011;16676;51.202;6.774;2023-04-25T11:37:12;5.10;;;1.83;;
29774;SDS011;16676;51.202;6.774;2023-04-25T11:41:15;8.30;;;1.60;;
29774;SDS011;16676;51.202;6.774;2023-04-25T11:45:17;4.70;;;1.17;;
29774;SDS011;16676;51.202;6.774;2023-04-25T11:49:19;4.75;;;1.10;;
29774;SDS011;16676;51.202;6.774;2023-04-25T11:53:23;4.38;;;1.45;;
29774;SDS011;16676;51.202;6.774;2023-04-25T11:57:28;2.65;;;1.00;;
29774;SDS011;16676;51.202;6.774;2023-04-25T12:01:33;6.60;;;1.48;;
29774;SDS011;16676;51.202;6.774;2023-04-25T12:05:37;4.22;;;1.10;;
29774;SDS011;16676;51.202;6.774;2023-04-25T12:09:41;3.47;;;1.20;;
29774;SDS011;16676;51.202;6.774;2023-04-25T12:13:43;2.42;;;1.10;;
29774;SDS011;16676;51.202;6.774;2023-04-25T12:17:45;5.20;;;1.40;;
29774;SDS011;16676;51.202;6.774;2023-04-25T12:21:48;2.75;;;0.93;;
29774;SDS011;16676;51.202;6.774;2023-04-25T12:25:52;4.72;;;1.38;;
29774;SDS011;16676;51.202;6.774;2023-04-25T12:29:54;4.30;;;1.17;;
29774;SDS011;16676;51.202;6.774;2023-04-25T12:33:57;3.95;;;1.30;;
29774;SDS011;16676;51.202;6.774;2023-04-25T12:37:59;1.90;;;1.00;;
29774;SDS011;16676;51.202;6.774;2023-04-25T12:42:02;3.25;;;1.10;;
29774;SDS011;16676;51.202;6.774;2023-04-25T12:46:04;3.45;;;1.30;;
29774;SDS011;16676;51.202;6.774;2023-04-25T12:50:06;4.78;;;1.50;;
29774;SDS011;16676;51.202;6.774;2023-04-25T12:54:08;3.33;;;0.98;;
29774;SDS011;16676;51.202;6.774;2023-04-25T12:58:12;5.20;;;1.55;;
29774;SDS011;16676;51.202;6.774;2023-04-25T13:02:14;3.28;;;1.10;;
29774;SDS011;16676;51.202;6.774;2023-04-25T13:06:16;2.92;;;1.30;;
29774;SDS011;16676;51.202;6.774;2023-04-25T13:10:20;4.32;;;1.50;;
29774;SDS011;16676;51.202;6.774;2023-04-25T13:14:23;3.83;;;1.45;;
29774;SDS011;16676;51.202;6.774;2023-04-25T13:18:25;4.07;;;1.30;;
29774;SDS011;16676;51.202;6.774;2023-04-25T13:22:27;2.35;;;1.00;;
29774;SDS011;16676;51.202;6.774;2023-04-25T13:26:29;4.80;;;1.27;;
29774;SDS011;16676;51.202;6.774;2023-04-25T13:30:32;5.03;;;1.00;;
29774;SDS011;16676;51.202;6.774;2023-04-25T13:34:34;4.78;;;1.38;;
29774;SDS011;16676;51.202;6.774;2023-04-25T13:38:36;3.03;;;0.98;;
29774;SDS011;16676;51.202;6.774;2023-04-25T13:42:39;3.63;;;1.27;;
29774;SDS011;16676;51.202;6.774;2023-04-25T13:46:42;3.03;;;1.05;;
29774;SDS011;16676;51.202;6.774;2023-04-25T13:50:46;4.50;;;1.08;;
29774;SDS011;16676;51.202;6.774;2023-04-25T13:54:48;4.45;;;1.45;;
29774;SDS011;16676;51.202;6.774;2023-04-25T13:58:50;3.30;;;1.30;;
29774;SDS011;16676;51.202;6.774;2023-04-25T14:02:54;2.58;;;0.93;;
29774;SDS011;16676;51.202;6.774;2023-04-25T14:06:56;3.72;;;1.10;;
29774;SDS011;16676;51.202;6.774;2023-04-25T14:10:58;3.97;;;1.10;;
29774;SDS011;16676;51.202;6.774;2023-04-25T14:15:00;3.47;;;1.27;;
29774;SDS011;16676;51.202;6.774;2023-04-25T14:19:03;3.47;;;1.02;;
29774;SDS011;16676;51.202;6.774;2023-04-25T14:23:05;2.17;;;1.08;;
29774;SDS011;16676;51.202;6.774;2023-04-25T14:27:07;3.50;;;1.42;;
29774;SDS011;16676;51.202;6.774;2023-04-25T14:31:09;2.05;;;0.85;;
29774;SDS011;16676;51.202;6.774;2023-04-25T14:35:12;2.63;;;1.08;;
29774;SDS011;16676;51.202;6.774;2023-04-25T14:39:14;3.55;;;0.82;;
29774;SDS011;16676;51.202;6.774;2023-04-25T14:43:16;5.13;;;1.20;;
29774;SDS011;16676;51.202;6.774;2023-04-25T14:47:18;2.15;;;0.95;;
29774;SDS011;16676;51.202;6.774;2023-04-25T14:51:22;2.97;;;0.95;;
29774;SDS011;16676;51.202;6.774;2023-04-25T14:55:24;2.55;;;1.00;;
29774;SDS011;16676;51.202;6.774;2023-04-25T14:59:25;2.88;;;1.17;;
29774;SDS011;16676;51.202;6.774;2023-04-25T15:03:28;5.57;;;1.27;;
29774;SDS011;16676;51.202;6.774;2023-04-25T15:07:32;4.22;;;1.23;;
29774;SDS011;16676;51.202;6.774;2023-04-25T15:11:34;5.63;;;1.33;;
29774;SDS011;16676;51.202;6.774;2023-04-25T15:15:36;5.57;;;1.52;;
29774;SDS011;16676;51.202;6.774;2023-04-25T15:19:37;3.63;;;1.50;;
29774;SDS011;16676;51.202;6.774;2023-04-25T15:23:41;5.47;;;1.25;;
29774;SDS011;16676;51.202;6.774;2023-04-25T15:27:43;6.10;;;1.27;;
29774;SDS011;16676;51.202;6.774;2023-04-25T15:31:48;4.78;;;1.42;;
29774;SDS011;16676;51.202;6.774;2023-04-25T15:35:50;2.75;;;1.10;;
29774;SDS011;16676;51.202;6.774;2023-04-25T15:40:00;4.57;;;1.08;;
29774;SDS011;16676;51.202;6.774;2023-04-25T15:44:06;3.88;;;1.45;;
29774;SDS011;16676;51.202;6.774;2023-04-25T15:48:10;5.85;;;1.50;;
29774;SDS011;16676;51.202;6.774;2023-04-25T15:52:12;3.88;;;1.20;;
29774;SDS011;16676;51.202;6.774;2023-04-25T15:56:15;4.43;;;1.17;;
29774;SDS011;16676;51.202;6.774;2023-04-25T16:00:17;4.22;;;1.10;;
29774;SDS011;16676;51.202;6.774;2023-04-25T16:04:21;6.97;;;1.42;;
29774;SDS011;16676;51.202;6.774;2023-04-25T16:08:24;7.18;;;1.67;;
29774;SDS011;16676;51.202;6.774;2023-04-25T16:12:30;6.03;;;1.30;;
29774;SDS011;16676;51.202;6.774;2023-04-25T16:16:32;5.45;;;1.65;;
29774;SDS011;16676;51.202;6.774;2023-04-25T16:20:34;3.55;;;1.58;;
29774;SDS011;16676;51.202;6.774;2023-04-25T16:24:36;8.05;;;1.40;;
29774;SDS011;16676;51.202;6.774;2023-04-25T16:28:39;3.65;;;1.25;;
29774;SDS011;16676;51.202;6.774;2023-04-25T16:32:41;7.50;;;1.95;;
29774;SDS011;16676;51.202;6.774;2023-04-25T16:36:43;4.53;;;1.73;;
29774;SDS011;16676;51.202;6.774;2023-04-25T16:40:45;6.05;;;1.70;;
29774;SDS011;16676;51.202;6.774;2023-04-25T16:44:48;5.65;;;1.77;;
29774;SDS011;16676;51.202;6.774;2023-04-25T16:48:50;3.88;;;1.73;;
29774;SDS011;16676;51.202;6.774;2023-04-25T16:52:52;4.00;;;1.80;;
29774;SDS011;16676;51.202;6.774;2023-04-25T16:56:54;5.88;;;1.60;;
29774;SDS011;16676;51.202;6.774;2023-04-25T17:00:58;5.00;;;1.70;;
29774;SDS011;16676;51.202;6.774;2023-04-25T17:05:00;5.05;;;1.45;;
29774;SDS011;16676;51.202;6.774;2023-04-25T17:09:02;4.88;;;1.75;;
29774;SDS011;16676;51.202;6.774;2023-04-25T17:13:05;7.25;;;4.63;;
29774;SDS011;16676;51.202;6.774;2023-04-25T17:17:08;9.20;;;5.78;;
29774;SDS011;16676;51.202;6.774;2023-04-25T17:21:10;10.70;;;5.60;;
29774;SDS011;16676;51.202;6.774;2023-04-25T17:25:12;10.48;;;6.45;;
29774;SDS011;16676;51.202;6.774;2023-04-25T17:29:14;11.02;;;6.50;;
29774;SDS011;16676;51.202;6.774;2023-04-25T17:33:17;9.52;;;4.82;;
29774;SDS011;16676;51.202;6.774;2023-04-25T17:37:19;9.98;;;4.90;;
29774;SDS011;16676;51.202;6.774;2023-04-25T17:41:22;7.45;;;5.15;;
29774;SDS011;16676;51.202;6.774;2023-04-25T17:45:24;12.23;;;5.90;;
29774;SDS011;16676;51.202;6.774;2023-04-25T17:49:30;12.40;;;6.25;;
29774;SDS011;16676;51.202;6.774;2023-04-25T17:53:33;12.20;;;6.57;;
29774;SDS011;16676;51.202;6.774;2023-04-25T17:57:35;8.85;;;5.30;;
29774;SDS011;16676;51.202;6.774;2023-04-25T18:01:37;11.88;;;4.80;;
29774;SDS011;16676;51.202;6.774;2023-04-25T18:05:41;8.27;;;5.00;;
29774;SDS011;16676;51.202;6.774;2023-04-25T18:09:43;11.40;;;5.55;;
29774;SDS011;16676;51.202;6.774;2023-04-25T18:13:45;9.88;;;5.97;;
29774;SDS011;16676;51.202;6.774;2023-04-25T18:17:47;11.90;;;6.10;;
29774;SDS011;16676;51.202;6.774;2023-04-25T18:21:51;11.05;;;6.18;;
29774;SDS011;16676;51.202;6.774;2023-04-25T18:25:54;11.20;;;5.95;;
29774;SDS011;16676;51.202;6.774;2023-04-25T18:29:56;10.30;;;6.07;;
29774;SDS011;16676;51.202;6.774;2023-04-25T18:33:58;11.13;;;6.00;;
29774;SDS011;16676;51.202;6.774;2023-04-25T18:38:02;11.50;;;6.20;;
29774;SDS011;16676;51.202;6.774;2023-04-25T18:42:04;9.70;;;5.65;;
29774;SDS011;16676;51.202;6.774;2023-04-25T18:46:06;10.40;;;5.70;;
29774;SDS011;16676;51.202;6.774;2023-04-25T18:50:08;9.25;;;5.53;;
29774;SDS011;16676;51.202;6.774;2023-04-25T18:54:13;9.98;;;5.22;;
29774;SDS011;16676;51.202;6.774;2023-04-25T18:58:15;9.68;;;5.28;;
29774;SDS011;16676;51.202;6.774;2023-04-25T19:02:17;9.60;;;4.93;;
29774;SDS011;16676;51.202;6.774;2023-04-25T19:06:19;9.10;;;5.07;;
29774;SDS011;16676;51.202;6.774;2023-04-25T19:10:24;8.85;;;4.95;;
29774;SDS011;16676;51.202;6.774;2023-04-25T19:14:29;6.75;;;4.35;;
29774;SDS011;16676;51.202;6.774;2023-04-25T19:18:32;11.40;;;5.05;;
29774;SDS011;16676;51.202;6.774;2023-04-25T19:22:34;8.65;;;4.80;;
29774;SDS011;16676;51.202;6.774;2023-04-25T19:26:37;8.35;;;4.45;;
29774;SDS011;16676;51.202;6.774;2023-04-25T19:30:39;8.52;;;4.00;;
29774;SDS011;16676;51.202;6.774;2023-04-25T19:34:41;9.32;;;4.63;;
29774;SDS011;16676;51.202;6.774;2023-04-25T19:38:43;7.78;;;4.38;;
29774;SDS011;16676;51.202;6.774;2023-04-25T19:42:47;6.95;;;4.05;;
29774;SDS011;16676;51.202;6.774;2023-04-25T19:46:50;10.00;;;4.53;;
29774;SDS011;16676;51.202;6.774;2023-04-25T19:50:51;8.25;;;4.18;;
29774;SDS011;16676;51.202;6.774;2023-04-25T19:54:53;8.98;;;4.68;;
29774;SDS011;16676;51.202;6.774;2023-04-25T19:58:58;8.80;;;4.40;;
29774;SDS011;16676;51.202;6.774;2023-04-25T20:03:00;9.52;;;4.75;;
29774;SDS011;16676;51.202;6.774;2023-04-25T20:07:03;6.68;;;3.92;;
29774;SDS011;16676;51.202;6.774;2023-04-25T20:11:05;8.75;;;4.03;;
29774;SDS011;16676;51.202;6.774;2023-04-25T20:15:09;6.60;;;3.90;;
29774;SDS011;16676;51.202;6.774;2023-04-25T20:19:11;8.52;;;3.97;;
29774;SDS011;16676;51.202;6.774;2023-04-25T20:23:13;8.13;;;3.83;;
29774;SDS011;16676;51.202;6.774;2023-04-25T20:27:15;8.00;;;3.55;;
29774;SDS011;16676;51.202;6.774;2023-04-25T20:31:19;8.57;;;3.95;;
29774;SDS011;16676;51.202;6.774;2023-04-25T20:35:21;7.35;;;3.53;;
29774;SDS011;16676;51.202;6.774;2023-04-25T20:39:23;8.00;;;3.50;;
29774;SDS011;16676;51.202;6.774;2023-04-25T20:43:26;8.50;;;3.65;;
29774;SDS011;16676;51.202;6.774;2023-04-25T20:47:29;7.00;;;3.10;;
29774;SDS011;16676;51.202;6.774;2023-04-25T20:51:32;7.82;;;3.58;;
29774;SDS011;16676;51.202;6.774;2023-04-25T20:55:35;7.78;;;3.00;;
29774;SDS011;16676;51.202;6.774;2023-04-25T20:59:37;6.45;;;3.00;;
29774;SDS011;16676;51.202;6.774;2023-04-25T21:03:40;6.68;;;2.92;;
29774;SDS011;16676;51.202;6.774;2023-04-25T21:07:42;7.60;;;2.53;;
29774;SDS011;16676;51.202;6.774;2023-04-25T21:11:44;6.18;;;2.92;;
29774;SDS011;16676;51.202;6.774;2023-04-25T21:15:46;7.53;;;3.50;;
29774;SDS011;16676;51.202;6.774;2023-04-25T21:19:50;9.35;;;3.22;;
29774;SDS011;16676;51.202;6.774;2023-04-25T21:23:52;5.88;;;2.50;;
29774;SDS011;16676;51.202;6.774;2023-04-25T21:27:54;5.97;;;2.90;;
29774;SDS011;16676;51.202;6.774;2023-04-25T21:31:56;6.45;;;2.88;;
29774;SDS011;16676;51.202;6.774;2023-04-25T21:36:00;5.63;;;2.85;;
29774;SDS011;16676;51.202;6.774;2023-04-25T21:40:02;6.75;;;2.63;;
29774;SDS011;16676;51.202;6.774;2023-04-25T21:44:05;4.35;;;2.35;;
29774;SDS011;16676;51.202;6.774;2023-04-25T21:48:07;6.28;;;2.80;;
29774;SDS011;16676;51.202;6.774;2023-04-25T21:52:10;6.32;;;2.25;;
29774;SDS011;16676;51.202;6.774;2023-04-25T21:56:12;6.00;;;2.50;;
29774;SDS011;16676;51.202;6.774;2023-04-25T22:00:14;5.68;;;2.38;;
29774;SDS011;16676;51.202;6.774;2023-04-25T22:04:23;3.88;;;2.25;;
29774;SDS011;16676;51.202;6.774;2023-04-25T22:08:26;7.95;;;2.47;;
29774;SDS011;16676;51.202;6.774;2023-04-25T22:12:28;4.05;;;2.00;;
29774;SDS011;16676;51.202;6.774;2023-04-25T22:16:30;4.50;;;1.92;;
29774;SDS011;16676;51.202;6.774;2023-04-25T22:20:33;4.43;;;2.13;;
29774;SDS011;16676;51.202;6.774;2023-04-25T22:24:37;3.53;;;2.17;;
29774;SDS011;16676;51.202;6.774;2023-04-25T22:28:39;4.45;;;2.20;;
29774;SDS011;16676;51.202;6.774;2023-04-25T22:32:41;3.70;;;1.85;;
29774;SDS011;16676;51.202;6.774;2023-04-25T22:36:43;4.03;;;2.13;;
29774;SDS011;16676;51.202;6.774;2023-04-25T22:40:46;4.80;;;2.25;;
29774;SDS011;16676;51.202;6.774;2023-04-25T22:44:48;4.28;;;1.92;;
29774;SDS011;16676;51.202;6.774;2023-04-25T22:48:51;3.92;;;2.03;;
29774;SDS011;16676;51.202;6.774;2023-04-25T22:52:53;4.93;;;2.03;;
29774;SDS011;16676;51.202;6.774;2023-04-25T22:56:56;3.70;;;2.10;;
29774;SDS011;16676;51.202;6.774;2023-04-25T23:00:59;3.72;;;1.98;;
29774;SDS011;16676;51.202;6.774;2023-04-25T23:05:01;4.20;;;1.85;;
29774;SDS011;16676;51.202;6.774;2023-04-25T23:09:03;4.18;;;2.10;;
29774;SDS011;16676;51.202;6.774;2023-04-25T23:13:09;3.67;;;1.85;;
29774;SDS011;16676;51.202;6.774;2023-04-25T23:17:11;7.13;;;2.55;;
29774;SDS011;16676;51.202;6.774;2023-04-25T23:21:14;3.30;;;1.80;;
29774;SDS011;16676;51.202;6.774;2023-04-25T23:25:16;3.83;;;1.95;;
29774;SDS011;16676;51.202;6.774;2023-04-25T23:29:19;3.38;;;1.83;;
29774;SDS011;16676;51.202;6.774;2023-04-25T23:33:21;3.72;;;1.85;;
29774;SDS011;16676;51.202;6.774;2023-04-25T23:37:23;4.60;;;2.00;;
29774;SDS011;16676;51.202;6.774;2023-04-25T23:41:25;3.13;;;1.63;;
29774;SDS011;16676;51.202;6.774;2023-04-25T23:45:28;3.88;;;1.67;;
29774;SDS011;16676;51.202;6.774;2023-04-25T23:49:30;2.92;;;1.58;;
29774;SDS011;16676;51.202;6.774;2023-04-25T23:53:32;4.22;;;1.95;;
29774;SDS011;16676;51.202;6.774;2023-04-25T23:57:34;4.80;;;1.90;;
